X  CloseMetar Aviation Weather Data     YMAV Avalon Airport

Temperature

23°C Temperature

16°C Dewpoint

65% Humidity



Wind

14 KM/H

 9 MPH

 4 M/S

 8 KTS



130°
South East
Current Conditions

Clear Clear
Pressure 1011.92 (hPa) - 29.88 (in)
Visibility 6.2 (mi) - 10 (km)
Airport
Airport-code YMAV

Location Avalon Airport 14 (km)

Metar:
YMAV 230130Z AUTO 13008KT 9999 // NCD 23/16 Q1012 RF00.0/000.0

Time: 23-01-2021 12:30